createdAt,value
2018-12-13T00:00:03.459Z,77.86
2018-12-13T00:02:33.349Z,78.05
2018-12-13T00:05:04.389Z,78.65
2018-12-13T00:07:33.240Z,78.28
2018-12-13T00:10:02.257Z,78.67
2018-12-13T00:12:31.142Z,78.84
2018-12-13T00:15:00.018Z,78.23
2018-12-13T00:17:28.918Z,78.24
2018-12-13T00:19:57.805Z,78.76
2018-12-13T00:22:26.692Z,78.99
2018-12-13T00:24:55.574Z,79.05
2018-12-13T00:27:24.465Z,78.71
2018-12-13T00:29:53.466Z,78.75
2018-12-13T00:32:22.357Z,78.61
2018-12-13T00:34:51.241Z,78.78
2018-12-13T00:37:20.139Z,78.45
2018-12-13T00:39:49.012Z,78.43
2018-12-13T00:42:17.912Z,78.58
2018-12-13T00:44:46.798Z,78.24
2018-12-13T00:47:15.708Z,78.46
2018-12-13T00:49:44.597Z,78.26
2018-12-13T00:52:13.476Z,77.73
2018-12-13T00:54:42.384Z,77.95
2018-12-13T00:57:11.244Z,78.21
2018-12-13T00:59:40.145Z,78.59
2018-12-13T01:02:09.158Z,78.41
2018-12-13T01:04:38.020Z,78.34
2018-12-13T01:07:07.033Z,78.65
2018-12-13T01:09:35.911Z,78.94
2018-12-13T01:12:04.733Z,78.38
2018-12-13T01:14:33.580Z,78.47
2018-12-13T01:17:02.665Z,78.93
2018-12-13T01:19:31.578Z,78.69
2018-12-13T01:22:00.452Z,78.42
2018-12-13T01:24:29.360Z,78.18
2018-12-13T01:26:58.553Z,77.82
2018-12-13T01:29:27.456Z,78.29
2018-12-13T01:31:56.334Z,78.43
2018-12-13T01:34:25.232Z,77.89
2018-12-13T01:36:54.108Z,77.96
2018-12-13T01:39:23.213Z,77.51
2018-12-13T01:41:52.209Z,77.85
2018-12-13T01:44:21.212Z,77.66
2018-12-13T01:46:50.180Z,78.06
2018-12-13T01:49:19.072Z,77.32
2018-12-13T01:51:47.927Z,78.04
2018-12-13T01:54:16.993Z,77.06
2018-12-13T01:56:45.833Z,77.64
2018-12-13T01:59:14.869Z,77.53
2018-12-13T02:01:44.824Z,77.28
2018-12-13T02:04:13.637Z,77.74
2018-12-13T02:06:42.541Z,77.10
2018-12-13T02:09:11.424Z,77.45
2018-12-13T02:11:41.353Z,77.37
2018-12-13T02:14:10.236Z,77.52
2018-12-13T02:16:39.237Z,77.81
2018-12-13T02:19:08.136Z,77.75
2018-12-13T02:21:37.073Z,77.67
2018-12-13T02:24:06.008Z,78.15
2018-12-13T02:26:35.827Z,77.64
2018-12-13T02:29:04.961Z,78.48
2018-12-13T02:31:34.000Z,78.40
2018-12-13T02:34:03.117Z,78.10
2018-12-13T02:36:31.995Z,78.63
2018-12-13T02:39:00.904Z,78.50
2018-12-13T02:41:29.883Z,78.33
2018-12-13T02:43:58.748Z,78.27
2018-12-13T02:46:27.761Z,78.18
2018-12-13T02:49:07.409Z,78.18
2018-12-13T02:51:36.309Z,78.40
2018-12-13T02:54:05.284Z,78.48
2018-12-13T02:56:35.191Z,77.81
2018-12-13T02:59:03.706Z,78.05
2018-12-13T03:01:32.578Z,78.07
2018-12-13T03:04:01.480Z,77.83
2018-12-13T03:06:30.443Z,78.20
2018-12-13T03:08:59.329Z,77.76
2018-12-13T03:11:28.232Z,78.53
2018-12-13T03:13:57.119Z,77.49
2018-12-13T03:16:25.962Z,77.73
2018-12-13T03:18:54.909Z,77.67
2018-12-13T03:21:23.801Z,78.03
2018-12-13T03:23:52.678Z,78.17
2018-12-13T03:26:21.579Z,77.69
2018-12-13T03:28:50.448Z,77.67
2018-12-13T03:31:19.415Z,78.13
2018-12-13T03:33:48.234Z,78.05
2018-12-13T03:36:17.149Z,78.05
2018-12-13T03:38:46.167Z,77.86
2018-12-13T03:41:15.260Z,77.18
2018-12-13T03:43:44.126Z,77.88
2018-12-13T03:46:13.237Z,77.85
2018-12-13T03:48:42.201Z,77.59
2018-12-13T03:51:11.011Z,77.54
2018-12-13T03:53:39.874Z,77.83
2018-12-13T03:56:08.987Z,77.91
2018-12-13T03:58:37.853Z,78.39
2018-12-13T04:01:06.688Z,78.36
2018-12-13T04:03:35.532Z,78.70
2018-12-13T04:06:04.498Z,79.07
2018-12-13T04:08:33.439Z,78.38
2018-12-13T04:11:03.233Z,78.54
2018-12-13T04:13:32.155Z,77.93
2018-12-13T04:16:01.627Z,78.07
2018-12-13T04:18:30.577Z,78.26
2018-12-13T04:20:59.406Z,79.11
2018-12-13T04:23:28.311Z,78.68
2018-12-13T04:25:57.279Z,79.32
2018-12-13T04:28:26.187Z,78.98
2018-12-13T04:30:55.066Z,78.77
2018-12-13T04:33:23.967Z,78.94
2018-12-13T04:35:52.883Z,78.79
2018-12-13T04:38:21.745Z,78.50
2018-12-13T04:40:50.616Z,78.37
2018-12-13T04:43:19.522Z,78.64
2018-12-13T04:45:48.438Z,78.72
2018-12-13T04:48:17.305Z,79.06
2018-12-13T04:50:46.185Z,78.58
2018-12-13T04:53:15.076Z,78.89
2018-12-13T04:55:43.963Z,79.06
2018-12-13T04:58:12.860Z,79.11
2018-12-13T05:00:41.757Z,78.66
2018-12-13T05:03:11.015Z,79.62
2018-12-13T05:05:39.934Z,79.40
2018-12-13T05:08:08.936Z,78.82
2018-12-13T05:10:49.306Z,78.93
2018-12-13T05:13:18.607Z,79.38
2018-12-13T05:15:47.909Z,78.97
2018-12-13T05:18:16.896Z,78.38
2018-12-13T05:20:45.735Z,78.86
2018-12-13T05:23:20.343Z,78.56
2018-12-13T05:25:51.386Z,78.45
2018-12-13T05:28:20.256Z,78.52
2018-12-13T05:30:49.133Z,77.68
2018-12-13T05:33:18.008Z,77.54
2018-12-13T05:35:46.931Z,77.81
2018-12-13T05:38:15.761Z,78.13
2018-12-13T05:40:44.636Z,77.69
2018-12-13T05:43:13.468Z,77.59
2018-12-13T05:45:42.357Z,77.31
2018-12-13T05:48:11.241Z,77.84
2018-12-13T05:50:40.145Z,77.40
2018-12-13T05:53:09.035Z,76.74
2018-12-13T05:55:37.925Z,76.45
2018-12-13T05:58:06.760Z,77.12
2018-12-13T06:00:35.592Z,76.81
2018-12-13T06:03:04.592Z,77.66
2018-12-13T06:05:33.452Z,77.06
2018-12-13T06:08:02.389Z,76.99
2018-12-13T06:10:31.248Z,77.29
2018-12-13T06:13:00.056Z,77.10
2018-12-13T06:15:28.946Z,77.17
2018-12-13T06:17:57.824Z,77.41
2018-12-13T06:20:26.712Z,76.85
2018-12-13T06:22:55.601Z,77.66
2018-12-13T06:25:24.529Z,77.53
2018-12-13T06:27:53.404Z,77.23
2018-12-13T06:30:23.194Z,77.86
2018-12-13T06:32:52.084Z,77.66
2018-12-13T06:35:20.980Z,77.60
2018-12-13T06:37:49.875Z,77.50
2018-12-13T06:40:18.756Z,76.67
2018-12-13T06:42:47.776Z,76.36
2018-12-13T06:45:17.301Z,77.13
2018-12-13T06:47:46.153Z,77.13
2018-12-13T06:50:15.170Z,77.14
2018-12-13T06:52:44.044Z,76.57
2018-12-13T06:55:13.023Z,76.23
2018-12-13T06:57:42.032Z,76.96
2018-12-13T07:00:11.353Z,76.62
2018-12-13T07:02:40.197Z,76.91
2018-12-13T07:05:09.236Z,76.96
2018-12-13T07:07:37.585Z,75.88
2018-12-13T07:10:06.640Z,76.64
2018-12-13T07:12:35.460Z,76.38
2018-12-13T07:15:05.673Z,76.41
2018-12-13T07:17:34.690Z,76.60
2018-12-13T07:20:04.709Z,76.79
2018-12-13T07:22:33.693Z,76.76
2018-12-13T07:25:02.622Z,76.14
2018-12-13T07:27:32.281Z,76.54
2018-12-13T07:30:01.193Z,76.52
2018-12-13T07:32:30.080Z,76.44
2018-12-13T07:35:01.386Z,76.44
2018-12-13T07:37:29.853Z,76.66
2018-12-13T07:39:58.707Z,76.62
2018-12-13T07:42:27.601Z,76.41
2018-12-13T07:44:57.500Z,75.87
2018-12-13T07:47:26.396Z,76.52
2018-12-13T07:49:55.286Z,76.38
2018-12-13T07:52:24.805Z,76.61
2018-12-13T07:54:53.666Z,76.51
2018-12-13T07:57:22.553Z,76.16
2018-12-13T07:59:51.448Z,76.72
2018-12-13T08:02:20.353Z,76.25
2018-12-13T08:04:50.357Z,76.03
2018-12-13T08:07:19.240Z,75.62
2018-12-13T08:09:48.140Z,75.97
2018-12-13T08:12:16.962Z,75.59
2018-12-13T08:14:45.961Z,75.50
2018-12-13T08:17:15.001Z,75.26
2018-12-13T08:19:45.850Z,75.42
2018-12-13T08:22:14.740Z,76.14
2018-12-13T08:24:43.628Z,75.51
2018-12-13T08:27:14.477Z,75.94
2018-12-13T08:29:43.376Z,76.48
2018-12-13T08:32:12.240Z,76.07
2018-12-13T08:34:41.125Z,76.28
2018-12-13T08:37:10.041Z,75.91
2018-12-13T08:39:38.914Z,76.00
2018-12-13T08:42:07.918Z,76.10
2018-12-13T08:44:37.391Z,75.89
2018-12-13T08:47:06.850Z,75.57
2018-12-13T08:49:35.692Z,75.93
2018-12-13T08:52:04.709Z,76.43
2018-12-13T08:54:33.584Z,76.41
2018-12-13T08:57:02.486Z,75.57
2018-12-13T08:59:31.357Z,75.75
2018-12-13T09:02:00.477Z,75.48
2018-12-13T09:04:29.339Z,74.95
2018-12-13T09:06:58.246Z,74.59
2018-12-13T09:09:27.300Z,74.62
2018-12-13T09:11:56.164Z,74.18
2018-12-13T09:14:24.232Z,74.30
2018-12-13T09:16:53.235Z,74.12
2018-12-13T09:19:22.058Z,74.04
2018-12-13T09:21:50.901Z,73.84
2018-12-13T09:24:19.747Z,73.13
2018-12-13T09:26:48.625Z,72.42
2018-12-13T09:29:17.526Z,72.44
2018-12-13T09:31:47.481Z,71.16
2018-12-13T09:34:16.390Z,71.58
2018-12-13T09:36:45.254Z,70.46
2018-12-13T09:39:14.140Z,70.00
2018-12-13T09:41:43.076Z,71.52
2018-12-13T09:44:16.861Z,70.12
2018-12-13T09:46:46.910Z,69.64
2018-12-13T09:49:15.817Z,68.94
2018-12-13T09:51:44.781Z,68.40
2018-12-13T09:54:13.630Z,67.89
2018-12-13T09:56:42.477Z,67.76
2018-12-13T09:59:11.375Z,67.22
2018-12-13T10:01:40.250Z,67.00
2018-12-13T10:04:09.130Z,67.33
2018-12-13T10:06:38.069Z,66.04
2018-12-13T10:09:08.256Z,65.97
2018-12-13T10:11:37.744Z,66.07
2018-12-13T10:14:06.693Z,65.57
2018-12-13T10:16:35.525Z,65.75
2018-12-13T10:19:04.559Z,65.54
2018-12-13T10:21:33.565Z,65.34
2018-12-13T10:24:02.453Z,64.68
2018-12-13T10:26:31.412Z,64.10
2018-12-13T10:29:00.345Z,63.90
2018-12-13T10:31:29.226Z,63.70
2018-12-13T10:33:58.832Z,63.81
2018-12-13T10:36:27.832Z,63.22
2018-12-13T10:38:56.654Z,64.00
2018-12-13T10:41:25.503Z,62.12
2018-12-13T10:43:54.381Z,63.34
2018-12-13T10:46:23.273Z,62.02
2018-12-13T10:48:52.205Z,63.07
2018-12-13T10:51:21.166Z,62.70
2018-12-13T10:53:50.018Z,63.12
2018-12-13T10:56:18.856Z,62.49
2018-12-13T10:58:47.790Z,62.67
2018-12-13T11:01:22.097Z,62.96
2018-12-13T11:03:50.957Z,61.66
2018-12-13T11:06:19.802Z,62.38
2018-12-13T11:08:48.680Z,62.14
2018-12-13T11:11:17.496Z,61.68
2018-12-13T11:13:46.393Z,61.32
2018-12-13T11:16:15.265Z,61.54
2018-12-13T11:18:44.134Z,61.47
2018-12-13T11:21:17.523Z,60.63
2018-12-13T11:23:44.984Z,62.95
2018-12-13T11:26:14.079Z,63.29
2018-12-13T11:29:52.059Z,62.71
2018-12-13T11:32:20.954Z,61.79
2018-12-13T11:34:49.818Z,60.55
2018-12-13T11:37:18.682Z,60.60
2018-12-13T11:39:47.554Z,60.29
2018-12-13T11:42:16.426Z,59.01
2018-12-13T11:44:45.307Z,59.33
2018-12-13T11:47:14.173Z,58.20
2018-12-13T11:49:42.998Z,58.50
2018-12-13T11:52:11.841Z,57.80
2018-12-13T11:54:43.601Z,57.65
2018-12-13T11:57:12.718Z,57.81
2018-12-13T11:59:41.641Z,57.60
2018-12-13T12:02:10.507Z,56.56
2018-12-13T12:04:39.350Z,57.26
2018-12-13T12:07:08.194Z,57.78
2018-12-13T12:09:37.039Z,57.18
2018-12-13T12:12:05.981Z,57.61
2018-12-13T12:14:34.825Z,57.63
2018-12-13T12:17:03.769Z,57.91
2018-12-13T12:19:32.623Z,58.05
2018-12-13T12:22:01.449Z,58.82
2018-12-13T12:24:30.354Z,58.33
2018-12-13T12:26:59.189Z,56.71
2018-12-13T12:29:28.046Z,56.47
2018-12-13T12:31:56.883Z,56.54
2018-12-13T12:34:25.729Z,56.68
2018-12-13T12:36:54.644Z,56.78
2018-12-13T12:39:23.485Z,56.69
2018-12-13T12:41:52.330Z,56.14
2018-12-13T12:44:21.193Z,56.43
2018-12-13T12:46:50.078Z,56.99
2018-12-13T12:49:18.914Z,56.43
2018-12-13T12:51:48.054Z,56.42
2018-12-13T12:54:16.954Z,55.63
2018-12-13T12:56:45.845Z,55.95
2018-12-13T12:59:14.727Z,54.93
2018-12-13T13:01:43.599Z,54.10
2018-12-13T13:04:12.449Z,54.99
2018-12-13T13:06:41.373Z,54.77
2018-12-13T13:09:10.261Z,56.24
2018-12-13T13:11:39.242Z,55.98
2018-12-13T13:14:08.490Z,56.09
2018-12-13T13:16:37.379Z,55.44
2018-12-13T13:19:06.225Z,55.15
2018-12-13T13:21:35.093Z,54.68
2018-12-13T13:24:04.280Z,53.68
2018-12-13T13:26:33.183Z,52.93
2018-12-13T13:29:02.098Z,52.94
2018-12-13T13:31:31.184Z,53.41
2018-12-13T13:34:00.094Z,54.01
2018-12-13T13:36:29.118Z,53.58
2018-12-13T13:38:58.090Z,53.05
2018-12-13T13:41:27.040Z,52.48
2018-12-13T13:43:55.870Z,52.29
2018-12-13T13:46:25.806Z,52.43
2018-12-13T13:48:54.649Z,51.86
2018-12-13T13:51:24.548Z,51.84
2018-12-13T13:53:53.368Z,53.07
2018-12-13T13:56:22.177Z,54.22
2018-12-13T13:58:51.023Z,53.98
2018-12-13T14:01:19.965Z,53.94
2018-12-13T14:03:48.980Z,54.26
2018-12-13T14:06:17.965Z,52.25
2018-12-13T14:08:47.918Z,52.35
2018-12-13T14:11:17.542Z,53.83
2018-12-13T14:13:46.480Z,54.63
2018-12-13T14:16:15.301Z,53.94
2018-12-13T14:18:44.149Z,53.71
2018-12-13T14:21:13.103Z,52.72
2018-12-13T14:23:41.943Z,52.97
2018-12-13T14:26:10.765Z,54.11
2018-12-13T14:28:39.713Z,55.56
2018-12-13T14:31:08.820Z,54.94
2018-12-13T14:33:37.726Z,56.01
2018-12-13T14:36:06.561Z,56.09
2018-12-13T14:38:35.394Z,56.63
2018-12-13T14:41:07.329Z,56.36
2018-12-13T14:43:53.046Z,56.26
2018-12-13T14:46:21.992Z,57.75
2018-12-13T14:48:50.914Z,58.34
2018-12-13T14:51:19.825Z,58.16
2018-12-13T14:53:48.681Z,58.57
2018-12-13T14:56:17.570Z,59.88
2018-12-13T14:58:46.780Z,58.06
2018-12-13T15:01:15.630Z,56.82
2018-12-13T15:03:44.564Z,58.68
2018-12-13T15:06:13.428Z,57.38
2018-12-13T15:08:42.483Z,56.80
2018-12-13T15:11:11.409Z,55.99
2018-12-13T15:13:40.228Z,55.85
2018-12-13T15:16:09.192Z,56.59
2018-12-13T15:18:38.117Z,57.91
2018-12-13T15:21:08.050Z,58.54
2018-12-13T15:23:36.881Z,59.42
2018-12-13T15:26:05.754Z,59.55
2018-12-13T15:28:34.578Z,59.79
2018-12-13T15:31:04.198Z,59.08
2018-12-13T15:33:33.026Z,59.53
2018-12-13T15:36:02.405Z,59.49
2018-12-13T15:38:31.257Z,58.59
2018-12-13T15:41:00.097Z,58.65
2018-12-13T15:43:28.938Z,58.71
2018-12-13T15:45:57.917Z,59.11
2018-12-13T15:48:26.821Z,59.79
2018-12-13T15:50:56.209Z,60.24
2018-12-13T15:53:25.383Z,60.13
2018-12-13T15:55:54.245Z,61.22
2018-12-13T15:58:23.142Z,60.89
2018-12-13T16:00:52.092Z,60.70
2018-12-13T16:03:20.938Z,60.58
2018-12-13T16:05:49.799Z,60.97
2018-12-13T16:08:18.970Z,60.64
2018-12-13T16:10:47.813Z,61.57
2018-12-13T16:13:16.645Z,61.04
2018-12-13T16:15:45.542Z,61.12
2018-12-13T16:18:14.410Z,61.27
2018-12-13T16:20:43.265Z,61.48
2018-12-13T16:23:13.191Z,61.24
2018-12-13T16:25:42.089Z,62.54
2018-12-13T16:28:11.035Z,62.25
2018-12-13T16:30:39.913Z,62.52
2018-12-13T16:33:08.853Z,62.56
2018-12-13T16:35:38.576Z,62.29
2018-12-13T16:38:08.173Z,62.27
2018-12-13T16:40:37.001Z,61.86
2018-12-13T16:43:05.950Z,61.86
2018-12-13T16:45:34.928Z,62.84
2018-12-13T16:48:03.845Z,62.77
2018-12-13T16:50:32.806Z,63.18
2018-12-13T16:53:01.666Z,62.98
2018-12-13T16:55:30.780Z,62.79
2018-12-13T16:57:59.638Z,63.66
2018-12-13T17:00:28.817Z,64.21
2018-12-13T17:02:57.674Z,62.87
2018-12-13T17:05:27.429Z,62.91
2018-12-13T17:07:57.160Z,63.17
2018-12-13T17:10:26.054Z,63.51
2018-12-13T17:12:55.008Z,64.03
2018-12-13T17:15:23.844Z,63.87
2018-12-13T17:17:52.845Z,63.70
2018-12-13T17:20:21.664Z,63.90
2018-12-13T17:22:50.526Z,64.75
2018-12-13T17:25:19.429Z,65.72
2018-12-13T17:27:48.309Z,65.74
2018-12-13T17:30:17.168Z,65.62
2018-12-13T17:32:45.994Z,65.90
2018-12-13T17:35:14.851Z,67.26
2018-12-13T17:37:43.668Z,66.32
2018-12-13T17:40:12.502Z,65.94
2018-12-13T17:42:41.341Z,66.12
2018-12-13T17:45:10.266Z,66.58
2018-12-13T17:47:39.180Z,66.08
2018-12-13T17:50:09.217Z,66.36
2018-12-13T17:52:38.029Z,66.24
2018-12-13T17:55:07.185Z,66.29
2018-12-13T17:57:36.110Z,66.59
2018-12-13T18:00:06.317Z,65.87
2018-12-13T18:02:35.180Z,65.39
2018-12-13T18:05:04.119Z,64.74
2018-12-13T18:07:33.065Z,65.02
2018-12-13T18:10:01.890Z,65.82
2018-12-13T18:12:30.760Z,65.97
2018-12-13T18:14:59.762Z,65.64
2018-12-13T18:17:28.675Z,65.78
2018-12-13T18:19:57.661Z,66.36
2018-12-13T18:22:26.736Z,66.44
2018-12-13T18:24:55.941Z,67.02
2018-12-13T18:27:24.841Z,66.41
2018-12-13T18:29:53.721Z,66.36
2018-12-13T18:32:22.561Z,66.16
2018-12-13T18:34:51.409Z,66.55
2018-12-13T18:37:20.293Z,66.44
2018-12-13T18:39:49.118Z,67.21
2018-12-13T18:42:18.073Z,67.20
2018-12-13T18:44:46.975Z,67.10
2018-12-13T18:47:15.772Z,67.50
2018-12-13T18:49:44.667Z,67.55
2018-12-13T18:52:14.340Z,67.02
2018-12-13T18:54:43.244Z,66.78
2018-12-13T18:57:12.065Z,66.51
2018-12-13T18:59:40.944Z,67.44
2018-12-13T19:02:09.810Z,67.46
2018-12-13T19:04:38.669Z,67.56
2018-12-13T19:07:08.533Z,67.52
2018-12-13T19:09:37.410Z,67.05
2018-12-13T19:12:06.290Z,68.02
2018-12-13T19:14:35.315Z,67.28
2018-12-13T19:17:05.469Z,66.93
2018-12-13T19:19:34.469Z,65.73
2018-12-13T19:22:04.740Z,66.44
2018-12-13T19:24:33.748Z,66.82
2018-12-13T19:27:02.588Z,66.61
2018-12-13T19:29:31.517Z,67.58
2018-12-13T19:32:00.353Z,66.66
2018-12-13T19:34:29.269Z,66.61
2018-12-13T19:36:58.169Z,66.71
2018-12-13T19:39:27.063Z,67.45
2018-12-13T19:41:55.941Z,68.00
2018-12-13T19:44:24.941Z,68.06
2018-12-13T19:46:53.777Z,67.91
2018-12-13T19:49:22.764Z,67.54
2018-12-13T19:51:51.642Z,68.36
2018-12-13T19:54:20.506Z,67.33
2018-12-13T19:56:49.366Z,67.57
2018-12-13T19:59:19.545Z,67.35
2018-12-13T20:01:48.386Z,66.67
2018-12-13T20:04:17.358Z,66.80
2018-12-13T20:06:46.193Z,66.79
2018-12-13T20:09:15.075Z,67.21
2018-12-13T20:11:44.084Z,66.96
2018-12-13T20:14:13.574Z,67.46
2018-12-13T20:16:42.621Z,66.82
2018-12-13T20:19:11.756Z,67.05
2018-12-13T20:21:40.637Z,68.54
2018-12-13T20:24:09.509Z,67.83
2018-12-13T20:26:38.445Z,68.51
2018-12-13T20:29:07.334Z,68.02
2018-12-13T20:31:36.211Z,67.84
2018-12-13T20:34:05.222Z,67.53
2018-12-13T20:36:34.115Z,67.17
2018-12-13T20:39:03.145Z,67.75
2018-12-13T20:41:32.093Z,67.81
2018-12-13T20:44:01.024Z,67.33
2018-12-13T20:46:29.883Z,68.23
2018-12-13T20:48:58.777Z,69.00
2018-12-13T20:51:27.744Z,69.68
2018-12-13T20:53:58.136Z,68.97
2018-12-13T20:56:26.964Z,68.33
2018-12-13T20:59:09.438Z,68.33
2018-12-13T21:01:38.833Z,68.89
2018-12-13T21:04:07.796Z,69.15
2018-12-13T21:06:36.667Z,68.34
2018-12-13T21:09:06.951Z,68.52
2018-12-13T21:11:35.881Z,68.93
2018-12-13T21:14:04.800Z,68.26
2018-12-13T21:16:33.765Z,68.52
2018-12-13T21:19:03.697Z,67.48
2018-12-13T21:21:32.700Z,67.92
2018-12-13T21:24:02.366Z,67.61
2018-12-13T21:26:31.198Z,68.26
2018-12-13T21:29:00.046Z,68.35
2018-12-13T21:31:28.929Z,68.48
2018-12-13T21:33:57.830Z,68.14
2018-12-13T21:36:27.228Z,68.14
2018-12-13T21:38:56.942Z,68.15
2018-12-13T21:41:25.926Z,67.71
2018-12-13T21:43:54.992Z,68.05
2018-12-13T21:46:24.231Z,67.15
2018-12-13T21:48:53.149Z,67.34
2018-12-13T21:51:25.376Z,68.23
2018-12-13T21:53:54.328Z,66.60
2018-12-13T21:56:23.166Z,66.95
2018-12-13T21:58:52.009Z,66.22
2018-12-13T22:01:21.013Z,66.16
2018-12-13T22:03:49.952Z,66.22
2018-12-13T22:06:19.046Z,67.18
2018-12-13T22:08:48.116Z,66.93
2018-12-13T22:11:19.903Z,66.48
2018-12-13T22:13:47.980Z,66.68
2018-12-13T22:16:16.841Z,67.25
2018-12-13T22:18:45.812Z,65.84
2018-12-13T22:21:14.627Z,66.64
2018-12-13T22:23:43.530Z,65.84
2018-12-13T22:26:12.429Z,65.36
2018-12-13T22:28:41.376Z,66.01
2018-12-13T22:31:10.292Z,66.46
2018-12-13T22:33:39.298Z,66.10
2018-12-13T22:36:08.437Z,65.53
2018-12-13T22:38:37.291Z,63.99
2018-12-13T22:41:06.198Z,63.85
2018-12-13T22:43:35.221Z,64.21
2018-12-13T22:46:04.408Z,63.91
2018-12-13T22:48:33.680Z,64.31
2018-12-13T22:51:02.565Z,64.86
2018-12-13T22:53:31.421Z,65.02
2018-12-13T22:56:00.313Z,65.39
2018-12-13T22:58:29.217Z,65.93
2018-12-13T23:00:58.222Z,66.19
2018-12-13T23:03:27.098Z,66.94
2018-12-13T23:05:56.109Z,67.75
2018-12-13T23:08:25.081Z,67.91
2018-12-13T23:10:54.253Z,67.06
2018-12-13T23:13:23.305Z,66.61
2018-12-13T23:15:52.544Z,66.72
2018-12-13T23:18:21.961Z,66.45
2018-12-13T23:20:50.866Z,66.63
2018-12-13T23:23:19.848Z,67.74
2018-12-13T23:25:49.884Z,68.16
2018-12-13T23:28:18.821Z,67.54
2018-12-13T23:30:47.641Z,67.53
2018-12-13T23:33:16.644Z,67.94
2018-12-13T23:35:45.663Z,66.80
2018-12-13T23:38:14.674Z,67.03
2018-12-13T23:40:43.509Z,67.31
2018-12-13T23:43:12.513Z,67.98
2018-12-13T23:45:41.429Z,67.97
2018-12-13T23:48:10.280Z,67.28
2018-12-13T23:50:39.722Z,68.46
2018-12-13T23:53:08.577Z,69.10
2018-12-13T23:55:37.456Z,68.37
2018-12-13T23:58:06.328Z,68.12
